Time;durP1;ratioP1;P1;durP2;ratioP2;P2;SDS_P1;SDS_P2;PMS_P1;PMS_P2;Temp;Humidity;BMP_temperature;BMP_pressure;BME280_temperature;BME280_humidity;BME280_pressure;Samples;Min_cycle;Max_cycle;Signal;HPM_P1;HPM_P2
2023/02/26 00:00:32;;;;;;;2.15;2.05;;;3.80;99.90;;;;;;5103916;28;20696;-77
2023/02/26 00:03:00;;;;;;;1.50;1.40;;;3.80;99.90;;;;;;5099758;28;20227;-77
2023/02/26 00:05:27;;;;;;;2.40;1.67;;;3.80;99.90;;;;;;5102432;28;20380;-76
2023/02/26 00:07:57;;;;;;;2.17;1.50;;;3.80;99.90;;;;;;5104651;28;20644;-81
2023/02/26 00:10:24;;;;;;;3.38;1.90;;;3.80;99.90;;;;;;5090321;28;20218;-77
2023/02/26 00:12:52;;;;;;;3.28;2.90;;;3.80;99.90;;;;;;5098898;28;20637;-83
2023/02/26 00:15:20;;;;;;;1.95;1.30;;;3.80;99.90;;;;;;5100321;28;20224;-77
2023/02/26 00:17:55;;;;;;;1.90;1.55;;;3.80;99.90;;;;;;5098525;28;20295;-80
2023/02/26 00:20:25;;;;;;;1.30;1.20;;;3.80;99.90;;;;;;5112175;28;20274;-77
2023/02/26 00:22:53;;;;;;;1.40;1.30;;;3.80;99.90;;;;;;5093606;28;20233;-76
2023/02/26 00:25:20;;;;;;;2.15;1.02;;;3.80;99.90;;;;;;5098422;28;20310;-77
2023/02/26 00:27:48;;;;;;;3.35;1.27;;;3.80;99.90;;;;;;5106821;28;20329;-81
2023/02/26 00:30:16;;;;;;;3.50;1.70;;;3.80;99.90;;;;;;5105815;28;20874;-76
2023/02/26 00:32:43;;;;;;;2.13;1.60;;;3.80;99.90;;;;;;5100003;28;20269;-81
2023/02/26 00:35:15;;;;;;;2.28;1.92;;;3.80;99.90;;;;;;5101905;28;20227;-81
2023/02/26 00:37:58;;;;;;;2.05;1.60;;;3.80;99.90;;;;;;5094549;28;20691;-81
2023/02/26 00:40:40;;;;;;;2.88;2.00;;;3.80;99.90;;;;;;5101296;28;20685;-81
2023/02/26 00:43:10;;;;;;;1.67;1.58;;;3.80;99.90;;;;;;5100140;28;20306;-78
2023/02/26 00:45:42;;;;;;;1.60;1.50;;;3.80;99.90;;;;;;5107073;28;20308;-77
2023/02/26 00:48:37;;;;;;;4.47;1.60;;;3.80;99.90;;;;;;5109669;28;20234;-78
2023/02/26 00:51:13;;;;;;;2.88;1.30;;;3.90;99.90;;;;;;5081965;28;20597;-82
2023/02/26 00:53:47;;;;;;;1.88;1.25;;;3.80;99.90;;;;;;5081890;28;20222;-77
2023/02/26 00:56:15;;;;;;;3.80;1.52;;;3.80;99.90;;;;;;5076029;28;20231;-76
2023/02/26 00:58:42;;;;;;;4.03;1.92;;;3.90;99.90;;;;;;5067988;28;20235;-77
2023/02/26 01:01:09;;;;;;;2.65;1.50;;;3.80;99.90;;;;;;5079658;28;20224;-82
2023/02/26 01:03:37;;;;;;;3.50;2.55;;;3.90;99.90;;;;;;5086323;28;20227;-81
2023/02/26 01:06:10;;;;;;;3.08;2.22;;;3.90;99.90;;;;;;5084706;28;20232;-81
2023/02/26 01:08:43;;;;;;;1.42;1.20;;;3.90;99.90;;;;;;5088514;28;20246;-76
2023/02/26 01:11:10;;;;;;;1.85;1.42;;;3.90;99.90;;;;;;5090661;28;20254;-76
2023/02/26 01:13:38;;;;;;;1.90;1.42;;;3.90;99.90;;;;;;5087355;28;20237;-82
2023/02/26 01:16:09;;;;;;;3.22;1.50;;;3.90;99.90;;;;;;5082750;28;20224;-77
2023/02/26 01:18:42;;;;;;;3.13;1.30;;;4.00;99.90;;;;;;5095138;28;20235;-78
2023/02/26 01:21:15;;;;;;;2.58;1.60;;;4.00;99.90;;;;;;5084363;28;20615;-77
2023/02/26 01:23:47;;;;;;;3.03;1.55;;;3.90;99.90;;;;;;5078706;28;20311;-81
2023/02/26 01:26:20;;;;;;;2.00;1.30;;;4.00;99.90;;;;;;5090754;28;20227;-79
2023/02/26 01:28:47;;;;;;;2.60;1.50;;;4.00;99.90;;;;;;5091091;28;20255;-83
2023/02/26 01:31:27;;;;;;;2.20;1.25;;;4.00;99.90;;;;;;5075919;28;20224;-76
2023/02/26 01:34:00;;;;;;;5.32;1.73;;;4.00;99.90;;;;;;5086381;28;20224;-80
2023/02/26 01:36:33;;;;;;;0.95;0.90;;;4.00;99.90;;;;;;5086279;28;20232;-77
2023/02/26 01:39:06;;;;;;;2.47;1.13;;;4.10;99.90;;;;;;5089513;28;20223;-82
2023/02/26 01:41:39;;;;;;;2.05;1.42;;;4.00;99.90;;;;;;5087499;28;20223;-77
2023/02/26 01:44:15;;;;;;;1.98;1.25;;;4.00;99.90;;;;;;5081751;28;20223;-77
2023/02/26 01:47:09;;;;;;;1.90;1.45;;;4.00;99.90;;;;;;5082547;28;20292;-77
2023/02/26 01:49:36;;;;;;;4.60;1.33;;;4.00;99.90;;;;;;5090861;28;20224;-80
2023/02/26 01:52:06;;;;;;;1.63;1.30;;;4.00;99.90;;;;;;5110167;28;20253;-80
2023/02/26 01:54:35;;;;;;;2.22;1.10;;;4.00;99.90;;;;;;5107350;28;20257;-77
2023/02/26 01:57:07;;;;;;;1.88;1.60;;;3.90;99.90;;;;;;5086487;28;20277;-81
2023/02/26 01:59:36;;;;;;;2.25;1.35;;;3.90;99.90;;;;;;5105876;28;20238;-81
2023/02/26 02:02:06;;;;;;;2.90;1.60;;;4.00;99.90;;;;;;5089579;28;20218;-77
2023/02/26 02:04:34;;;;;;;2.45;1.50;;;4.00;99.90;;;;;;5102724;28;20297;-76
2023/02/26 02:07:02;;;;;;;6.80;1.40;;;4.00;99.90;;;;;;5103491;28;20245;-81
2023/02/26 02:09:31;;;;;;;2.03;1.33;;;4.00;99.90;;;;;;5103684;28;20673;-83
2023/02/26 02:12:09;;;;;;;1.50;1.20;;;4.00;99.90;;;;;;5109445;28;20219;-82
2023/02/26 02:14:46;;;;;;;5.50;1.38;;;4.00;99.90;;;;;;5109984;28;20218;-82
2023/02/26 02:17:20;;;;;;;1.40;1.20;;;4.00;99.90;;;;;;5105091;28;20297;-81
2023/02/26 02:20:13;;;;;;;3.35;1.50;;;4.10;99.90;;;;;;5092206;28;20222;-81
2023/02/26 02:23:08;;;;;;;2.38;1.30;;;4.10;99.90;;;;;;5101870;28;20296;-82
2023/02/26 02:26:13;;;;;;;2.00;1.35;;;4.10;99.90;;;;;;5104266;28;20223;-76
2023/02/26 02:28:50;;;;;;;1.23;1.13;;;4.00;99.90;;;;;;5094936;28;20261;-77
2023/02/26 02:31:23;;;;;;;3.13;1.10;;;4.00;99.90;;;;;;5102146;28;20631;-82
2023/02/26 02:34:02;;;;;;;3.30;1.00;;;4.00;99.90;;;;;;5103305;28;20308;-81
2023/02/26 02:36:36;;;;;;;1.77;1.25;;;4.10;99.90;;;;;;5106765;28;20607;-81
2023/02/26 02:39:07;;;;;;;2.38;1.38;;;4.00;99.90;;;;;;5107740;28;20214;-77
2023/02/26 02:41:40;;;;;;;3.88;1.50;;;4.00;99.90;;;;;;5103200;28;20272;-77
2023/02/26 02:44:12;;;;;;;3.28;1.30;;;4.00;99.90;;;;;;5101980;28;20215;-81
2023/02/26 02:46:43;;;;;;;1.20;1.10;;;4.00;99.90;;;;;;5105255;28;20219;-76
2023/02/26 02:49:14;;;;;;;4.03;2.22;;;4.00;99.90;;;;;;5108142;28;20227;-81
2023/02/26 02:51:46;;;;;;;1.80;1.25;;;4.00;99.90;;;;;;5106321;28;20601;-82
2023/02/26 02:54:17;;;;;;;2.90;1.20;;;4.00;99.90;;;;;;5101243;28;20302;-76
2023/02/26 02:56:54;;;;;;;1.20;0.98;;;4.00;99.90;;;;;;5096682;28;20272;-77
2023/02/26 02:59:24;;;;;;;2.00;1.23;;;4.00;99.90;;;;;;5106659;28;20230;-78
2023/02/26 03:02:01;;;;;;;1.48;1.30;;;4.00;99.90;;;;;;5101378;28;20257;-81
2023/02/26 03:04:28;;;;;;;1.60;0.90;;;4.00;99.90;;;;;;5101974;28;20280;-82
2023/02/26 03:06:56;;;;;;;1.10;1.00;;;4.00;99.90;;;;;;5102517;28;20242;-77
2023/02/26 03:09:23;;;;;;;2.10;1.30;;;4.00;99.90;;;;;;5100916;28;20257;-81
2023/02/26 03:11:50;;;;;;;1.20;1.10;;;3.90;99.90;;;;;;5107328;28;20219;-81
2023/02/26 03:14:19;;;;;;;2.85;1.20;;;4.00;99.90;;;;;;5108033;28;20226;-81
2023/02/26 03:17:08;;;;;;;2.60;1.27;;;3.90;99.90;;;;;;5081812;28;20223;-77
2023/02/26 03:19:44;;;;;;;4.00;1.35;;;3.90;99.90;;;;;;5100638;28;20232;-81
2023/02/26 03:22:15;;;;;;;2.03;1.25;;;3.90;99.90;;;;;;5103089;28;20222;-77
2023/02/26 03:24:51;;;;;;;3.22;1.13;;;3.90;99.90;;;;;;5106753;28;20216;-77
2023/02/26 03:27:24;;;;;;;1.55;1.20;;;3.90;99.90;;;;;;5105353;28;20222;-77
2023/02/26 03:29:55;;;;;;;1.63;1.00;;;4.00;99.90;;;;;;5088922;28;20223;-82
2023/02/26 03:32:27;;;;;;;2.05;1.25;;;3.90;99.90;;;;;;5099789;28;20227;-81
2023/02/26 03:35:01;;;;;;;4.82;1.33;;;3.90;99.90;;;;;;5106444;28;20324;-77
2023/02/26 03:37:34;;;;;;;1.20;1.10;;;3.90;99.90;;;;;;5107648;28;20223;-80
2023/02/26 03:40:06;;;;;;;5.15;1.85;;;3.90;99.90;;;;;;5105158;28;20297;-81
2023/02/26 03:42:39;;;;;;;2.72;1.17;;;3.90;99.90;;;;;;5100311;28;20720;-80
2023/02/26 03:45:12;;;;;;;3.95;1.48;;;3.90;99.90;;;;;;5102636;28;20360;-81
2023/02/26 03:47:43;;;;;;;2.38;1.05;;;3.90;99.90;;;;;;5107255;28;20231;-76
2023/02/26 03:50:14;;;;;;;3.38;1.30;;;3.90;99.90;;;;;;5107271;28;20279;-76
2023/02/26 03:52:45;;;;;;;6.63;1.75;;;3.90;99.90;;;;;;5101738;28;20234;-76
2023/02/26 03:55:16;;;;;;;1.60;1.40;;;3.90;99.90;;;;;;5100458;28;20655;-76
2023/02/26 03:57:48;;;;;;;1.25;1.00;;;3.80;99.90;;;;;;5083002;28;20723;-81
2023/02/26 04:00:16;;;;;;;3.17;1.05;;;3.80;99.90;;;;;;5106886;28;20219;-76
2023/02/26 04:02:55;;;;;;;1.67;1.00;;;3.90;99.90;;;;;;5091287;28;20223;-76
2023/02/26 04:05:26;;;;;;;3.88;1.38;;;3.90;99.90;;;;;;5087497;28;20226;-77
2023/02/26 04:07:53;;;;;;;2.05;1.52;;;3.90;99.90;;;;;;5100085;28;20235;-76
2023/02/26 04:10:27;;;;;;;1.42;1.33;;;3.90;99.90;;;;;;5105204;28;20635;-77
2023/02/26 04:12:54;;;;;;;1.60;0.90;;;4.00;99.90;;;;;;5106807;28;20211;-81
2023/02/26 04:15:22;;;;;;;1.77;1.17;;;4.00;99.90;;;;;;5106304;28;20298;-80
2023/02/26 04:17:54;;;;;;;2.15;1.38;;;4.00;99.90;;;;;;5103349;28;20228;-81
2023/02/26 04:20:21;;;;;;;1.42;1.00;;;4.00;99.90;;;;;;5104404;28;20245;-81
2023/02/26 04:22:48;;;;;;;5.43;1.35;;;4.00;99.90;;;;;;5101998;28;20224;-80
2023/02/26 04:25:18;;;;;;;4.63;1.40;;;4.00;99.90;;;;;;5094136;28;20227;-81
2023/02/26 04:27:45;;;;;;;2.20;1.15;;;4.00;99.90;;;;;;5100062;28;20296;-81
2023/02/26 04:30:13;;;;;;;3.15;2.25;;;3.90;99.90;;;;;;5098589;28;20215;-77
2023/02/26 04:32:40;;;;;;;2.88;1.20;;;4.00;99.90;;;;;;5107143;28;20227;-81
2023/02/26 04:35:09;;;;;;;1.52;1.10;;;4.00;99.90;;;;;;5108973;28;20303;-81
2023/02/26 04:37:37;;;;;;;3.25;1.30;;;4.00;99.90;;;;;;5108939;28;20299;-77
2023/02/26 04:40:05;;;;;;;1.60;1.38;;;3.90;99.90;;;;;;5104095;28;20624;-81
2023/02/26 04:42:33;;;;;;;3.40;1.40;;;3.90;99.90;;;;;;5103359;28;20227;-81
2023/02/26 04:45:01;;;;;;;4.07;1.60;;;3.90;99.90;;;;;;5106177;28;20316;-77
2023/02/26 04:47:28;;;;;;;2.58;1.23;;;3.90;99.90;;;;;;5110358;28;20233;-81
2023/02/26 04:49:56;;;;;;;1.30;1.20;;;3.90;99.90;;;;;;5092653;28;20234;-76
2023/02/26 04:52:25;;;;;;;3.40;1.65;;;3.90;99.90;;;;;;5084312;28;20223;-77
2023/02/26 04:54:53;;;;;;;2.03;1.20;;;3.90;99.90;;;;;;5106446;28;20227;-81
2023/02/26 04:57:26;;;;;;;1.30;1.00;;;3.80;99.90;;;;;;5097497;28;20230;-76
2023/02/26 04:59:54;;;;;;;1.23;1.13;;;3.90;99.90;;;;;;5094302;28;20218;-76
2023/02/26 05:02:23;;;;;;;1.70;1.13;;;3.90;99.90;;;;;;5101273;28;20220;-76
2023/02/26 05:04:51;;;;;;;1.75;1.10;;;3.90;99.90;;;;;;5096792;28;20230;-81
2023/02/26 05:07:27;;;;;;;4.32;1.20;;;3.90;99.90;;;;;;5069154;28;20244;-76
2023/02/26 05:10:02;;;;;;;1.77;1.02;;;4.00;99.90;;;;;;5104670;28;20280;-81
2023/02/26 05:12:30;;;;;;;2.83;1.00;;;4.00;99.90;;;;;;5110605;28;20227;-80
2023/02/26 05:15:00;;;;;;;2.50;1.02;;;4.10;99.90;;;;;;5095560;28;20219;-81
2023/02/26 05:17:30;;;;;;;1.20;1.10;;;4.10;99.90;;;;;;5110161;28;20227;-80
2023/02/26 05:19:59;;;;;;;1.45;1.00;;;4.10;99.90;;;;;;5111852;28;20287;-81
2023/02/26 05:22:26;;;;;;;1.27;1.00;;;4.10;99.90;;;;;;5109061;28;20267;-76
2023/02/26 05:24:53;;;;;;;0.90;0.90;;;4.10;99.90;;;;;;5108439;28;20227;-77
2023/02/26 05:27:22;;;;;;;7.75;2.33;;;4.00;99.90;;;;;;5108216;28;20215;-77
2023/02/26 05:29:49;;;;;;;4.13;1.35;;;4.00;99.90;;;;;;5101010;28;20227;-81
2023/02/26 05:32:16;;;;;;;1.73;0.90;;;4.00;99.90;;;;;;5109175;28;20621;-77
2023/02/26 05:34:43;;;;;;;2.35;1.05;;;3.90;99.90;;;;;;5103704;28;20219;-77
2023/02/26 05:37:10;;;;;;;2.90;1.10;;;3.90;99.90;;;;;;5096339;28;20285;-81
2023/02/26 05:39:37;;;;;;;1.10;0.80;;;3.90;99.90;;;;;;5096043;28;20281;-81
2023/02/26 05:42:04;;;;;;;2.40;1.13;;;3.90;99.90;;;;;;5095640;28;20219;-81
2023/02/26 05:44:34;;;;;;;2.70;1.30;;;3.90;99.90;;;;;;5095937;28;20231;-80
2023/02/26 05:47:01;;;;;;;2.80;1.50;;;3.90;99.90;;;;;;5093925;28;20227;-77
2023/02/26 05:49:28;;;;;;;1.42;1.17;;;3.90;99.90;;;;;;5095822;28;20228;-77
2023/02/26 05:51:55;;;;;;;1.60;1.08;;;3.90;99.90;;;;;;5097617;28;20273;-81
2023/02/26 05:54:22;;;;;;;1.30;1.00;;;3.90;99.90;;;;;;5096644;28;20223;-77
2023/02/26 05:56:49;;;;;;;1.60;1.05;;;3.90;99.90;;;;;;5095729;28;20256;-77
2023/02/26 05:59:16;;;;;;;0.98;0.88;;;3.90;99.90;;;;;;5098108;28;20227;-78
2023/02/26 06:01:45;;;;;;;3.40;1.48;;;3.90;99.90;;;;;;5103546;28;20230;-80
2023/02/26 06:04:12;;;;;;;1.05;0.95;;;3.90;99.90;;;;;;5110828;28;20223;-77
2023/02/26 06:06:40;;;;;;;3.08;1.30;;;3.90;99.90;;;;;;5110795;28;20227;-76
2023/02/26 06:09:07;;;;;;;2.88;1.20;;;4.00;99.90;;;;;;5110029;28;20264;-77
2023/02/26 06:11:35;;;;;;;4.35;1.20;;;4.00;99.90;;;;;;5110930;28;20246;-76
2023/02/26 06:14:02;;;;;;;4.13;1.00;;;4.00;99.90;;;;;;5097614;28;20223;-76
2023/02/26 06:16:31;;;;;;;5.60;1.55;;;4.00;99.90;;;;;;5097640;28;20238;-79
2023/02/26 06:18:59;;;;;;;1.52;1.30;;;4.00;99.90;;;;;;5096215;28;20241;-79
2023/02/26 06:21:27;;;;;;;1.40;1.10;;;4.00;99.90;;;;;;5096848;28;20573;-77
2023/02/26 06:23:54;;;;;;;2.05;1.20;;;4.00;99.90;;;;;;5098098;28;20227;-77
2023/02/26 06:26:21;;;;;;;3.45;1.20;;;4.00;99.90;;;;;;5098702;28;20242;-77
2023/02/26 06:28:49;;;;;;;3.72;1.25;;;4.00;99.90;;;;;;5098943;28;20288;-81
2023/02/26 06:31:21;;;;;;;1.73;1.15;;;4.00;99.90;;;;;;5098469;28;20234;-77
2023/02/26 06:33:49;;;;;;;3.30;1.15;;;4.10;99.90;;;;;;5096386;28;20317;-77
2023/02/26 06:36:18;;;;;;;1.30;1.20;;;4.10;99.90;;;;;;5097623;28;20227;-76
2023/02/26 06:38:46;;;;;;;2.08;1.00;;;4.00;99.90;;;;;;5097762;28;20696;-76
2023/02/26 06:41:14;;;;;;;2.03;1.02;;;4.10;99.90;;;;;;5096371;28;20356;-77
2023/02/26 06:43:52;;;;;;;1.83;1.73;;;4.10;99.90;;;;;;5078475;28;20302;-77
2023/02/26 06:46:19;;;;;;;1.60;1.35;;;4.10;99.90;;;;;;5087111;28;20223;-82
2023/02/26 06:48:48;;;;;;;1.15;1.05;;;4.10;99.90;;;;;;5084385;28;20239;-77
2023/02/26 06:51:14;;;;;;;4.70;1.63;;;4.20;99.90;;;;;;5094629;28;20230;-77
2023/02/26 06:53:43;;;;;;;2.20;1.25;;;4.20;99.90;;;;;;5095264;28;20250;-78
2023/02/26 06:56:10;;;;;;;1.75;1.30;;;4.20;99.90;;;;;;5094690;28;20238;-77
2023/02/26 06:58:37;;;;;;;1.83;1.10;;;4.30;99.90;;;;;;5094285;28;20228;-77
2023/02/26 07:01:05;;;;;;;1.73;1.05;;;4.30;99.90;;;;;;5093328;28;20231;-78
2023/02/26 07:03:32;;;;;;;2.38;1.10;;;4.30;99.90;;;;;;5095133;28;20689;-77
2023/02/26 07:05:59;;;;;;;2.30;1.10;;;4.30;99.90;;;;;;5095049;28;20302;-77
2023/02/26 07:08:26;;;;;;;4.10;1.38;;;4.30;99.90;;;;;;5094968;28;20236;-77
2023/02/26 07:10:54;;;;;;;2.55;1.38;;;4.30;99.90;;;;;;5095059;28;20288;-81
2023/02/26 07:13:22;;;;;;;2.90;1.00;;;4.40;99.90;;;;;;5094595;28;20219;-81
2023/02/26 07:15:49;;;;;;;1.33;1.13;;;4.30;99.90;;;;;;5095201;28;20231;-80
2023/02/26 07:18:16;;;;;;;2.30;1.10;;;4.40;99.90;;;;;;5094447;28;20242;-78
2023/02/26 07:20:44;;;;;;;1.98;1.38;;;4.40;99.90;;;;;;5096836;28;20248;-77
2023/02/26 07:23:11;;;;;;;2.05;1.30;;;4.30;99.90;;;;;;5094560;28;20668;-77
2023/02/26 07:25:38;;;;;;;1.35;1.25;;;4.30;99.90;;;;;;5094588;28;20231;-77
2023/02/26 07:28:07;;;;;;;2.03;1.40;;;4.30;99.90;;;;;;5094191;28;20242;-78
2023/02/26 07:30:35;;;;;;;3.53;1.95;;;4.30;99.90;;;;;;5094394;28;20262;-81
2023/02/26 07:33:07;;;;;;;1.50;1.30;;;4.30;99.90;;;;;;5093685;28;20223;-77
2023/02/26 07:35:45;;;;;;;2.08;1.00;;;4.20;99.90;;;;;;5093131;28;20239;-78
2023/02/26 07:38:12;;;;;;;2.88;1.83;;;4.20;99.90;;;;;;5093296;28;20760;-77
2023/02/26 07:40:39;;;;;;;1.75;1.15;;;4.20;99.90;;;;;;5093452;28;20227;-80
2023/02/26 07:43:08;;;;;;;1.65;1.08;;;4.20;99.90;;;;;;5093731;28;20252;-77
2023/02/26 07:45:35;;;;;;;1.60;1.10;;;4.20;99.90;;;;;;5093562;28;20215;-77
2023/02/26 07:48:02;;;;;;;2.15;1.48;;;4.20;99.90;;;;;;5093315;28;20219;-77
2023/02/26 07:50:29;;;;;;;3.50;1.60;;;4.30;99.90;;;;;;5092564;28;20231;-77
2023/02/26 07:52:56;;;;;;;2.15;1.42;;;4.20;99.90;;;;;;5093736;28;20246;-77
2023/02/26 07:55:26;;;;;;;3.53;1.83;;;4.20;99.90;;;;;;5093025;28;20230;-79
2023/02/26 07:57:53;;;;;;;3.10;1.55;;;4.20;99.90;;;;;;5093983;28;20242;-81
2023/02/26 08:00:29;;;;;;;3.22;1.05;;;4.20;99.90;;;;;;5093228;28;20606;-77
2023/02/26 08:02:56;;;;;;;1.80;1.50;;;4.20;99.90;;;;;;5093608;28;20563;-81
2023/02/26 08:05:23;;;;;;;1.83;1.30;;;4.20;99.90;;;;;;5093928;28;20641;-81
2023/02/26 08:07:50;;;;;;;2.00;1.80;;;4.20;99.90;;;;;;5094591;28;20235;-81
2023/02/26 08:10:19;;;;;;;2.67;1.10;;;4.20;99.90;;;;;;5092368;28;20298;-77
2023/02/26 08:12:46;;;;;;;1.70;1.00;;;4.30;99.90;;;;;;5082195;28;20673;-77
2023/02/26 08:15:13;;;;;;;1.58;1.10;;;4.30;99.90;;;;;;5093215;28;20665;-81
2023/02/26 08:17:42;;;;;;;3.60;1.58;;;4.30;99.90;;;;;;5091847;28;20231;-77
2023/02/26 08:20:14;;;;;;;2.63;1.30;;;4.30;99.90;;;;;;5093672;28;20234;-81
2023/02/26 08:22:41;;;;;;;1.85;1.40;;;4.40;99.90;;;;;;5093086;28;20310;-80
2023/02/26 08:25:14;;;;;;;3.17;1.20;;;4.40;99.90;;;;;;5093620;28;20276;-77
2023/02/26 08:27:41;;;;;;;1.20;1.10;;;4.40;99.90;;;;;;5093167;28;20324;-81
2023/02/26 08:30:11;;;;;;;1.85;1.10;;;4.40;99.90;;;;;;5093794;28;20235;-80
2023/02/26 08:32:41;;;;;;;1.20;1.10;;;4.40;99.90;;;;;;5091708;28;20307;-77
2023/02/26 08:35:19;;;;;;;1.95;1.40;;;4.50;99.90;;;;;;5092813;28;20693;-76
2023/02/26 08:37:45;;;;;;;1.90;1.58;;;4.40;99.90;;;;;;5091211;28;20559;-80
2023/02/26 08:40:14;;;;;;;1.10;1.00;;;4.40;99.90;;;;;;5093207;28;20268;-80
2023/02/26 08:42:43;;;;;;;7.18;1.10;;;4.40;99.90;;;;;;5092010;28;20523;-80
2023/02/26 08:45:11;;;;;;;2.92;1.27;;;4.40;99.90;;;;;;5092101;28;20330;-80
2023/02/26 08:47:44;;;;;;;1.70;1.20;;;4.50;99.90;;;;;;5092680;28;20230;-80
2023/02/26 08:50:13;;;;;;;4.00;1.33;;;4.50;99.90;;;;;;5092871;28;20227;-81
2023/02/26 08:52:41;;;;;;;3.35;1.48;;;4.60;99.90;;;;;;5092958;28;20223;-81
2023/02/26 08:55:09;;;;;;;3.80;1.13;;;4.60;99.90;;;;;;5093122;28;20234;-80
2023/02/26 08:57:36;;;;;;;3.67;1.10;;;4.60;99.90;;;;;;5092411;28;20250;-77
2023/02/26 09:00:09;;;;;;;4.47;1.42;;;4.60;99.90;;;;;;5092606;28;20306;-77
2023/02/26 09:02:36;;;;;;;3.80;1.50;;;4.60;99.90;;;;;;5092027;28;20239;-81
2023/02/26 09:05:03;;;;;;;1.80;1.10;;;4.70;99.90;;;;;;5092964;28;20288;-77
2023/02/26 09:07:31;;;;;;;4.03;1.67;;;4.70;99.90;;;;;;5092108;28;20227;-77
2023/02/26 09:09:59;;;;;;;1.80;1.20;;;4.80;99.90;;;;;;5092620;28;20226;-81
2023/02/26 09:12:26;;;;;;;1.50;1.20;;;4.80;99.90;;;;;;5092502;28;20634;-80
2023/02/26 09:14:54;;;;;;;2.50;1.33;;;4.80;99.90;;;;;;5092663;28;20227;-81
2023/02/26 09:17:21;;;;;;;2.05;1.30;;;4.80;99.90;;;;;;5091921;28;20302;-81
2023/02/26 09:19:48;;;;;;;1.92;1.38;;;4.80;99.90;;;;;;5092589;28;20219;-77
2023/02/26 09:22:15;;;;;;;1.75;1.25;;;4.70;99.90;;;;;;5093702;28;20211;-81
2023/02/26 09:24:42;;;;;;;1.92;1.15;;;4.80;99.90;;;;;;5096449;28;20281;-81
2023/02/26 09:27:11;;;;;;;4.00;2.30;;;4.80;99.90;;;;;;5095660;28;20215;-77
2023/02/26 09:29:38;;;;;;;2.42;1.30;;;4.80;99.90;;;;;;5095323;28;20223;-76
2023/02/26 09:32:07;;;;;;;3.47;1.35;;;4.80;99.90;;;;;;5096419;28;20592;-76
2023/02/26 09:34:34;;;;;;;2.95;1.30;;;4.80;99.90;;;;;;5095706;28;20245;-82
2023/02/26 09:37:01;;;;;;;2.00;1.33;;;4.90;99.90;;;;;;5096727;28;20557;-77
2023/02/26 09:39:29;;;;;;;2.65;1.15;;;4.90;99.90;;;;;;5095896;28;20238;-76
2023/02/26 09:42:00;;;;;;;1.88;1.15;;;4.90;99.90;;;;;;5095012;28;20247;-80
2023/02/26 09:44:31;;;;;;;2.25;1.30;;;5.00;99.90;;;;;;5096991;28;20235;-80
2023/02/26 09:47:09;;;;;;;2.95;0.90;;;5.00;99.90;;;;;;5068019;28;20223;-81
2023/02/26 09:49:48;;;;;;;2.35;1.30;;;5.00;99.90;;;;;;5096358;28;20223;-81
2023/02/26 09:52:22;;;;;;;1.90;1.10;;;5.00;99.90;;;;;;5096683;28;20226;-81
2023/02/26 09:54:52;;;;;;;3.65;1.42;;;5.10;99.90;;;;;;5097640;28;20223;-82
2023/02/26 09:57:27;;;;;;;3.20;1.40;;;5.10;99.90;;;;;;5095846;28;20631;-81
2023/02/26 09:59:56;;;;;;;1.73;1.25;;;5.10;99.90;;;;;;5096352;28;20230;-80
2023/02/26 10:02:32;;;;;;;2.28;1.40;;;5.20;99.90;;;;;;5096350;28;20226;-80
2023/02/26 10:05:11;;;;;;;2.88;1.10;;;5.30;99.90;;;;;;5095852;28;20222;-83
2023/02/26 10:07:45;;;;;;;2.97;1.23;;;5.30;99.90;;;;;;5094937;28;20324;-77
2023/02/26 10:10:20;;;;;;;3.03;1.15;;;5.30;99.90;;;;;;5094437;28;20215;-80
2023/02/26 10:12:50;;;;;;;3.50;1.30;;;5.30;99.90;;;;;;5093664;28;20215;-80
2023/02/26 10:15:22;;;;;;;1.42;1.33;;;5.30;99.90;;;;;;5095269;28;20306;-80
2023/02/26 10:18:02;;;;;;;1.20;1.00;;;5.40;99.90;;;;;;5094437;28;20227;-80
2023/02/26 10:20:35;;;;;;;1.60;1.13;;;5.50;99.90;;;;;;5096342;28;20292;-76
2023/02/26 10:23:15;;;;;;;2.65;1.20;;;5.50;99.90;;;;;;5094674;28;20686;-76
2023/02/26 10:25:47;;;;;;;2.20;1.10;;;5.50;99.90;;;;;;5094358;28;20239;-77
2023/02/26 10:28:44;;;;;;;1.80;1.38;;;5.60;99.90;;;;;;5094959;28;20285;-77
2023/02/26 10:31:22;;;;;;;1.25;0.90;;;5.60;99.90;;;;;;5094661;28;20223;-76
2023/02/26 10:33:57;;;;;;;2.28;1.20;;;5.70;99.90;;;;;;5094011;28;20223;-80
2023/02/26 10:36:29;;;;;;;2.90;1.10;;;5.60;99.90;;;;;;5094903;28;20226;-80
2023/02/26 10:39:03;;;;;;;1.75;1.00;;;5.60;99.90;;;;;;5077019;28;20519;-80
2023/02/26 10:41:34;;;;;;;1.00;0.90;;;5.70;99.90;;;;;;5095735;28;20592;-77
2023/02/26 10:44:13;;;;;;;1.27;1.13;;;5.70;99.90;;;;;;5094720;28;20223;-79
2023/02/26 10:46:50;;;;;;;3.60;1.48;;;5.70;99.90;;;;;;5096382;28;20267;-80
2023/02/26 10:49:35;;;;;;;1.75;1.20;;;5.70;99.40;;;;;;5097975;28;20226;-76
2023/02/26 10:52:13;;;;;;;1.63;1.02;;;5.80;99.10;;;;;;5092379;28;20227;-77
2023/02/26 10:54:48;;;;;;;2.28;1.50;;;5.80;98.70;;;;;;5114392;28;20223;-80
2023/02/26 10:57:21;;;;;;;2.05;0.90;;;5.80;98.90;;;;;;5114334;28;20252;-79
2023/02/26 10:59:48;;;;;;;1.65;1.10;;;5.80;99.10;;;;;;5114978;28;20257;-80
2023/02/26 11:02:33;;;;;;;2.47;0.95;;;5.90;99.10;;;;;;5103892;28;20234;-76
2023/02/26 11:05:01;;;;;;;3.35;1.20;;;6.00;98.70;;;;;;5095311;28;20285;-79
2023/02/26 11:07:30;;;;;;;2.75;1.27;;;6.00;98.50;;;;;;5098152;28;20234;-81
2023/02/26 11:09:59;;;;;;;6.60;1.35;;;6.00;98.50;;;;;;5095332;28;20223;-81
2023/02/26 11:12:27;;;;;;;2.05;1.20;;;6.00;97.80;;;;;;5094871;28;20219;-77
2023/02/26 11:15:00;;;;;;;2.80;1.90;;;6.00;97.20;;;;;;5094372;28;20569;-77
2023/02/26 11:17:31;;;;;;;3.72;2.75;;;6.10;97.60;;;;;;5094215;28;20356;-77
2023/02/26 11:20:04;;;;;;;1.73;1.60;;;6.10;97.60;;;;;;5094878;28;20227;-82
2023/02/26 11:22:34;;;;;;;1.52;1.30;;;6.20;97.90;;;;;;5095237;28;20254;-81
2023/02/26 11:25:04;;;;;;;1.65;1.17;;;6.30;97.60;;;;;;5095390;28;20664;-81
2023/02/26 11:27:33;;;;;;;2.15;1.48;;;6.30;97.40;;;;;;5094940;28;20216;-81
2023/02/26 11:30:05;;;;;;;1.92;1.10;;;6.40;97.30;;;;;;5093868;28;20231;-77
2023/02/26 11:32:36;;;;;;;2.30;1.00;;;6.40;97.00;;;;;;5093328;28;20223;-77
2023/02/26 11:35:07;;;;;;;1.40;1.30;;;6.40;97.50;;;;;;5093853;28;20254;-77
2023/02/26 11:37:37;;;;;;;5.57;3.05;;;6.40;97.50;;;;;;5093336;28;20219;-77
2023/02/26 11:40:10;;;;;;;1.80;1.70;;;6.40;97.20;;;;;;5094424;28;20219;-81
2023/02/26 11:42:42;;;;;;;1.65;1.30;;;6.40;97.00;;;;;;5094010;28;20518;-77
2023/02/26 11:45:14;;;;;;;1.00;0.90;;;6.40;96.30;;;;;;5093632;28;20234;-81
2023/02/26 11:47:43;;;;;;;2.28;1.30;;;6.30;95.80;;;;;;5093699;28;20230;-78
2023/02/26 11:50:15;;;;;;;2.15;1.10;;;6.30;95.50;;;;;;5093592;28;20239;-81
2023/02/26 11:52:47;;;;;;;2.70;1.63;;;6.30;95.60;;;;;;5093277;28;20211;-77
2023/02/26 11:55:20;;;;;;;1.73;1.38;;;6.40;93.80;;;;;;5093525;28;20310;-78
2023/02/26 11:57:53;;;;;;;2.35;1.35;;;6.40;93.80;;;;;;5092406;28;20235;-77
2023/02/26 12:00:24;;;;;;;2.30;1.30;;;6.40;94.60;;;;;;5093363;28;20227;-80
2023/02/26 12:03:03;;;;;;;1.10;1.00;;;6.40;94.40;;;;;;5093473;28;20257;-81
2023/02/26 12:05:34;;;;;;;1.35;0.88;;;6.40;94.20;;;;;;5093129;28;20314;-80
2023/02/26 12:08:17;;;;;;;1.85;1.45;;;6.40;93.90;;;;;;5093105;28;20231;-77
2023/02/26 12:10:55;;;;;;;2.00;1.08;;;6.40;93.40;;;;;;5091826;28;20223;-76
2023/02/26 12:13:30;;;;;;;1.70;1.30;;;6.30;92.80;;;;;;5093066;28;20284;-77
2023/02/26 12:16:05;;;;;;;2.17;1.40;;;6.30;92.80;;;;;;5092547;28;20231;-77
2023/02/26 12:18:51;;;;;;;3.35;1.30;;;6.20;92.40;;;;;;5093358;28;20242;-78
2023/02/26 12:21:33;;;;;;;1.10;1.00;;;6.30;92.30;;;;;;5094072;28;20215;-81
2023/02/26 12:24:31;;;;;;;1.88;1.35;;;6.30;92.30;;;;;;5093039;28;20230;-82
2023/02/26 12:27:08;;;;;;;1.30;1.20;;;6.40;91.60;;;;;;5093881;28;20215;-77
2023/02/26 12:29:48;;;;;;;2.10;1.27;;;6.40;92.00;;;;;;5092627;28;20227;-82
2023/02/26 12:32:37;;;;;;;1.20;1.10;;;6.40;92.40;;;;;;5092020;28;20295;-81
2023/02/26 12:35:20;;;;;;;1.58;1.00;;;6.30;92.40;;;;;;5092452;28;20231;-81
2023/02/26 12:37:57;;;;;;;1.27;1.17;;;6.20;92.70;;;;;;5093115;28;20281;-77
2023/02/26 12:40:55;;;;;;;2.53;1.33;;;6.20;93.30;;;;;;5092904;28;20214;-81
2023/02/26 12:43:30;;;;;;;1.17;1.00;;;6.20;93.70;;;;;;5092886;28;20297;-77
2023/02/26 12:46:07;;;;;;;1.60;1.10;;;6.20;93.30;;;;;;5092345;28;20223;-77
2023/02/26 12:48:56;;;;;;;1.55;1.20;;;6.20;93.40;;;;;;5075777;28;20230;-81
2023/02/26 12:51:35;;;;;;;1.45;1.20;;;6.20;93.30;;;;;;5093107;28;20246;-80
2023/02/26 12:54:19;;;;;;;1.55;1.15;;;6.20;92.40;;;;;;5093485;28;20672;-80
2023/02/26 12:57:12;;;;;;;1.55;1.23;;;6.30;92.20;;;;;;5093040;28;20219;-80
2023/02/26 13:00:11;;;;;;;4.85;1.85;;;6.30;92.30;;;;;;5096664;28;20238;-77
2023/02/26 13:03:12;;;;;;;2.15;1.60;;;6.30;91.10;;;;;;5069228;28;20227;-77
2023/02/26 13:05:51;;;;;;;2.63;1.30;;;6.30;91.30;;;;;;5070552;28;20235;-81
2023/02/26 13:08:32;;;;;;;3.13;1.40;;;6.40;92.10;;;;;;5101056;28;20230;-81
2023/02/26 13:11:13;;;;;;;2.10;1.27;;;6.40;92.20;;;;;;5107887;28;20641;-82
2023/02/26 13:13:57;;;;;;;1.60;1.35;;;6.40;92.20;;;;;;5107976;28;20253;-77
2023/02/26 13:16:36;;;;;;;1.35;0.90;;;6.40;92.40;;;;;;5099355;28;20292;-77
2023/02/26 13:19:10;;;;;;;1.92;1.40;;;6.40;92.20;;;;;;5096783;28;20223;-78
2023/02/26 13:21:43;;;;;;;1.45;0.95;;;6.50;92.40;;;;;;5096322;28;20272;-76